Latest Coastal Weather Observations for Dum In Mirrie

IDD60701

Issued at 8:31 am CST Monday 30 May 2016 (issued every 10 minutes, with the page automatically refreshed every 10 minutes)

About coastal observations | Map of coastal stations | Coastal observations for NT | Marine services | Other Formats
Station Details ID: 014277 Name: DUM IN MIRRIE AIRSTRIP Lat: -12.63 Lon: 130.37 Height: 3.5 m
Data from the previous 72 hours. | See also: Recent months at Dum In Mirrie
Date/Time
CST
Temp

°C
Wind Pressure Rain
since 9am
mm
Weather Cloud Vis
km
Sea
Height
m
Swell
Dir
 
Speed
knots
Gust
knots
hPa Trend Height
m
Period
s
Dir
30/08:30am 27.1 ESE 4 7 1013.6 - 2.6 - - - - - - -
30/08:00am 25.8 ESE 4 6 1013.4 - 2.6 - - - - - - -
30/07:30am 24.7 E 2 3 1012.9 - 2.6 - - - - - - -
30/07:00am 24.2 E 2 4 1012.6 - 2.6 - - - - - - -
30/06:30am 24.1 ESE 2 3 1012.1 - 2.6 - - - - - - -
30/06:00am 23.9 ESE 3 4 1011.9 - 2.6 - - - - - - -
30/05:30am 24.1 ESE 2 3 1011.5 - 2.6 - - - - - - -
30/05:00am 24.5 ESE 2 3 1011.5 - 2.6 - - - - - - -
30/04:30am 24.5 ESE 2 4 1011.3 - 2.6 - - - - - - -
30/04:00am 24.5 ESE 2 2 1011.2 - 2.6 - - - - - - -
30/03:30am 24.3 SE 1 2 1011.2 - 2.6 - - - - - - -
30/03:00am 24.5 ESE 1 2 1011.4 - 2.6 - - - - - - -
30/02:30am 24.5 ESE 1 2 1011.5 - 2.6 - - - - - - -
30/02:00am 24.0 E 2 3 1011.8 - 2.6 - - - - - - -
30/01:30am 24.0 CALM 0 1 1012.0 - 2.6 - - - - - - -
30/01:00am 24.0 E 1 2 1012.2 - 2.6 - - - - - - -
30/12:30am 23.8 CALM 0 0 1012.6 - 2.6 - - - - - - -
30/12:00am 23.8 CALM 0 0 1012.7 - 2.6 - - - - - - -
 
Date/Time
CST
Temp

°C
Wind Pressure Rain
since 9am
mm
Weather Cloud Vis
km
Sea
Height
m
Swell
Dir
 
Speed
knots
Gust
knots
hPa Trend Height
m
Period
s
Dir
29/11:30pm 23.8 CALM 0 0 1012.7 - 2.6 - - - - - - -
29/11:00pm 23.9 CALM 0 0 1013.0 - 2.6 - - - - - - -
29/10:30pm 23.9 CALM 0 0 1012.9 - 2.6 - - - - - - -
29/10:00pm 23.8 CALM 0 0 1012.6 - 2.6 - - - - - - -
29/09:30pm 24.1 CALM 0 0 1012.6 - 2.6 - - - - - - -
29/09:00pm 24.3 CALM 0 0 1012.4 - 2.6 - - - - - - -
29/08:30pm 24.3 CALM 0 0 1012.3 - 2.6 - - - - - - -
29/08:00pm 24.9 CALM 0 0 1012.1 - 2.6 - - - - - - -
29/07:30pm 25.3 CALM 0 0 1011.9 - 2.6 - - - - - - -
29/07:00pm 26.1 CALM 0 0 1011.7 - 2.6 - - - - - - -
29/06:30pm 27.3 CALM 0 0 1011.4 - 2.6 - - - - - - -
29/06:00pm 29.2 N 1 3 1011.0 - 2.6 - - - - - - -
29/05:30pm 29.5 NNE 2 3 1010.8 - 2.6 - - - - - - -
29/05:00pm 29.9 N 3 5 1010.5 - 2.6 - - - - - - -
29/04:30pm 30.6 E 2 3 1010.4 - 2.6 - - - - - - -
29/04:00pm 30.2 ENE 3 5 1010.3 - 2.6 - - - - - - -
29/03:30pm 28.2 NE 5 9 1010.7 - 2.6 - - - - - - -
29/03:00pm 28.3 NE 5 12 1011.0 - 2.6 Recent precip. - - - - - -
29/02:30pm 25.7 NNE 4 7 1011.2 - 2.6 - - - - - - -
29/02:00pm 24.1 NNW 5 9 1011.5 - 2.4 - - - - - - -
29/01:30pm 24.1 NNE 7 10 1012.6 - 1.6 - - - - - - -
29/01:00pm 24.7 E 9 17 1012.6 - 1.6 - - - - - - -
29/12:30pm 28.1 S 4 9 1012.9 - 0.0 - - - - - - -
29/12:00pm 28.3 ESE 5 9 1013.3 - 0.0 - - - - - - -
29/11:30am 30.2 NE 7 10 1013.3 - 0.0 - - - - - - -
29/11:00am 30.5 NE 7 12 1013.5 - 0.0 - - - - - - -
29/10:30am 30.7 NE 6 10 1013.5 - 0.0 - - - - - - -
29/10:00am 30.3 NNE 7 13 1013.3 - 0.0 - - - - - - -
29/09:30am 31.4 NNE 3 4 1013.2 - 0.0 - - - - - - -
29/09:00am 30.6 N 1 3 1012.9 - 0.0 - - - - - - -
29/08:30am 29.2 CALM 0 0 1012.6 - 0.0 - - - - - - -
29/08:00am 27.9 CALM 0 0 1012.2 - 0.0 - - - - - - -
29/07:30am 25.6 CALM 0 0 1011.9 - 0.0 - - - - - - -
29/07:00am 25.3 CALM 0 2 1011.5 - 0.0 - - - - - - -
29/06:30am 26.4 CALM 0 0 1011.2 - 0.0 - - - - - - -
29/06:00am 27.8 W 1 3 1010.9 - 0.0 - - - - - - -
29/05:30am 27.8 W 3 5 1010.7 - 0.0 - - - - - - -
29/05:00am 28.0 WSW 2 5 1010.5 - 0.0 - - - - - - -
29/04:30am 27.6 WNW 1 2 1010.5 - 0.0 - - - - - - -
29/04:00am 27.6 W 2 5 1010.3 - 0.0 - - - - - - -
29/03:30am 27.7 WNW 2 4 1010.5 - 0.0 - - - - - - -
29/03:00am 27.8 WNW 3 6 1010.7 - 0.0 - - - - - - -
29/02:30am 28.3 SW 2 5 1010.8 - 0.0 - - - - - - -
29/02:00am 28.4 SW 2 3 1011.0 - 0.0 - - - - - - -
29/01:30am 28.7 WSW 2 5 1011.0 - 0.0 - - - - - - -
29/01:00am 28.8 WSW 5 9 1011.2 - 0.0 - - - - - - -
29/12:30am 28.9 WSW 5 8 1011.3 - 0.0 - - - - - - -
29/12:00am 28.8 WSW 4 8 1011.6 - 0.0 - - - - - - -
 
Date/Time
CST
Temp

°C
Wind Pressure Rain
since 9am
mm
Weather Cloud Vis
km
Sea
Height
m
Swell
Dir
 
Speed
knots
Gust
knots
hPa Trend Height
m
Period
s
Dir
28/11:30pm 28.9 SW 3 6 1011.9 - 0.0 - - - - - - -
28/11:00pm 28.9 WSW 5 9 1011.8 - 0.0 - - - - - - -
28/10:30pm 28.8 WSW 2 5 1012.0 - 0.0 - - - - - - -
28/10:00pm 28.9 SW 2 5 1011.9 - 0.0 - - - - - - -
28/09:30pm 28.9 WSW 2 4 1011.9 - 0.0 - - - - - - -
28/09:00pm 29.0 SW 3 5 1011.8 - 0.0 - - - - - - -
28/08:30pm 29.1 SW 3 6 1011.5 - 0.0 - - - - - - -
28/08:00pm 29.0 SW 3 6 1010.9 - 0.0 - - - - - - -
28/07:30pm 29.1 WSW 3 7 1010.7 - 0.0 - - - - - - -
28/07:00pm 29.1 WSW 4 9 1010.3 - 0.0 - - - - - - -
28/06:30pm 29.1 W 4 8 1010.3 - 0.0 - - - - - - -
28/06:00pm 29.9 W 4 8 1010.2 - 0.0 - - - - - - -
28/05:30pm 30.5 W 5 11 1010.0 - 0.0 - - - - - - -
28/05:00pm 31.0 W 5 8 1009.8 - 0.0 - - - - - - -
28/04:30pm 31.3 W 5 9 1009.7 - 0.0 - - - - - - -
28/04:00pm 31.4 W 5 9 1009.9 - 0.0 - - - - - - -
28/03:30pm 31.5 W 5 9 1010.0 - 0.0 - - - - - - -
28/03:00pm 32.6 W 5 8 1010.4 - 0.0 - - - - - - -
28/02:30pm 32.5 W 5 8 1010.7 - 0.0 - - - - - - -
28/02:00pm 31.4 W 5 8 1011.0 - 0.0 - - - - - - -
28/01:30pm 32.0 W 5 9 1011.6 - 0.0 - - - - - - -
28/01:00pm 31.7 W 5 9 1012.0 - 0.0 - - - - - - -
28/12:30pm 31.3 W 5 9 1012.4 - 0.0 - - - - - - -
28/12:00pm 31.2 W 4 7 1012.9 - 0.0 - - - - - - -
28/11:30am 31.5 W 4 7 1013.1 - 0.0 - - - - - - -
28/11:00am 31.4 W 4 7 1013.4 - 0.0 - - - - - - -
28/10:30am 31.2 W 4 6 1013.7 - 0.0 - - - - - - -
28/10:00am 31.1 WNW 3 5 1013.7 - 0.0 - - - - - - -
28/09:30am 30.7 W 3 6 1013.8 - 0.0 - - - - - - -
28/09:00am 30.5 W 3 5 1013.8 - 0.0 - - - - - - -
28/08:30am 29.8 NW 2 4 1013.4 - 0.0 - - - - - - -
28/08:00am 28.8 NW 2 5 1013.2 - 0.0 - - - - - - -
28/07:30am 27.8 NW 3 4 1012.8 - 0.0 - - - - - - -
28/07:00am 27.8 NW 3 5 1012.5 - 0.0 - - - - - - -
28/06:30am 27.9 WNW 3 5 1012.1 - 0.0 - - - - - - -
28/06:00am 28.0 W 3 7 1012.0 - 0.0 - - - - - - -
28/05:30am 28.0 W 4 7 1012.0 - 0.0 - - - - - - -
28/05:00am 28.1 WNW 3 5 1012.0 - 0.0 - - - - - - -
28/04:30am 28.0 W 3 5 1011.9 - 0.0 - - - - - - -
28/04:00am 28.1 W 3 6 1011.8 - 0.0 - - - - - - -
28/03:30am 27.9 W 3 6 1011.6 - 0.0 - - - - - - -
28/03:00am 27.9 WNW 3 7 1011.7 - 0.0 - - - - - - -
28/02:30am 27.9 W 2 5 1011.9 - 0.0 - - - - - - -
28/02:00am 28.1 W 3 5 1012.1 - 0.0 - - - - - - -
28/01:30am 28.0 W 2 5 1012.1 - 0.0 - - - - - - -
28/01:00am 27.7 W 2 4 1012.1 - 0.0 - - - - - - -
28/12:30am 27.9 WNW 2 3 1012.2 - 0.0 - - - - - - -
28/12:00am 28.2 W 3 5 1012.0 - 0.0 - - - - - - -
 
Date/Time
CST
Temp

°C
Wind Pressure Rain
since 9am
mm
Weather Cloud Vis
km
Sea
Height
m
Swell
Dir
 
Speed
knots
Gust
knots
hPa Trend Height
m
Period
s
Dir
27/11:30pm 28.0 W 2 4 1012.1 - 0.0 - - - - - - -
27/11:00pm 28.2 W 2 4 1012.2 - 0.0 - - - - - - -
27/10:30pm 28.4 W 2 4 1012.2 - 0.0 - - - - - - -
27/10:00pm 28.5 W 3 4 1012.2 - 0.0 - - - - - - -
27/09:30pm 28.7 W 3 5 1012.2 - 0.0 - - - - - - -
27/09:00pm 28.9 W 4 7 1012.0 - 0.0 - - - - - - -
27/08:30pm 29.0 WSW 5 10 1011.7 - 0.0 - - - - - - -
27/08:00pm 29.1 WSW 6 11 1011.7 - 0.0 - - - - - - -
27/07:30pm 29.1 WSW 6 10 1011.4 - 0.0 - - - - - - -
27/07:00pm 28.9 W 5 9 1011.0 - 0.0 - - - - - - -
27/06:30pm 29.1 W 4 7 1010.8 - 0.0 - - - - - - -
27/06:00pm 29.8 W 5 9 1010.7 - 0.0 - - - - - - -
27/05:30pm 30.3 W 6 11 1010.6 - 0.0 - - - - - - -
27/05:00pm 30.9 W 5 9 1010.6 - 0.0 - - - - - - -
27/04:30pm 31.4 W 4 9 1010.6 - 0.0 - - - - - - -
27/04:00pm 31.5 W 5 9 1010.7 - 0.0 - - - - - - -
27/03:30pm 31.8 W 5 9 1010.8 - 0.0 - - - - - - -
27/03:00pm 31.4 W 5 9 1011.0 - 0.0 - - - - - - -
27/02:30pm 32.2 W 5 11 1011.5 - 0.0 - - - - - - -
27/02:00pm 31.8 W 7 10 1011.9 - 0.0 - - - - - - -
27/01:30pm 32.2 W 6 10 1012.5 - 0.0 - - - - - - -
27/01:00pm 31.8 W 5 8 1013.1 - 0.0 - - - - - - -
27/12:30pm 31.6 W 6 9 1013.4 - 0.0 - - - - - - -
27/12:00pm 31.2 W 6 8 1013.7 - 0.0 - - - - - - -
27/11:30am 30.9 W 4 7 1014.0 - 0.0 - - - - - - -
27/11:00am 30.9 WSW 3 5 1014.2 - 0.0 - - - - - - -
27/10:30am 31.0 WSW 3 6 1014.4 - 0.0 - - - - - - -
27/10:00am 30.4 WSW 3 5 1014.3 - 0.0 - - - - - - -
27/09:30am 30.6 WSW 3 4 1014.3 - 0.0 - - - - - - -
27/09:00am 30.2 SW 2 5 1014.1 - 0.0 - - - - - - -

Other Formats:

Comma delimited format used in spreadsheet applications
http://www.bom.gov.au/fwo/IDD60701/IDD60701.94116.axf

JavaScript Object Notation format (JSON) in row-major order
http://www.bom.gov.au/fwo/IDD60701/IDD60701.94116.json